sensor_id;sensor_type;location;lat;lon;timestamp;temperature;humidity
49731;DHT22;35622;52.008;5.426;2023-06-10T00:00:54;21.80;48.20
49731;DHT22;35622;52.008;5.426;2023-06-10T00:03:21;21.80;48.40
49731;DHT22;35622;52.008;5.426;2023-06-10T00:05:49;21.80;48.50
49731;DHT22;35622;52.008;5.426;2023-06-10T00:08:14;21.70;48.60
49731;DHT22;35622;52.008;5.426;2023-06-10T00:10:41;21.70;48.70
49731;DHT22;35622;52.008;5.426;2023-06-10T00:13:07;21.60;48.80
49731;DHT22;35622;52.008;5.426;2023-06-10T00:15:37;21.60;48.90
49731;DHT22;35622;52.008;5.426;2023-06-10T00:18:03;21.60;49.00
49731;DHT22;35622;52.008;5.426;2023-06-10T00:20:29;21.50;49.10
49731;DHT22;35622;52.008;5.426;2023-06-10T00:22:56;21.50;49.20
49731;DHT22;35622;52.008;5.426;2023-06-10T00:25:22;21.40;49.20
49731;DHT22;35622;52.008;5.426;2023-06-10T00:27:48;21.40;49.30
49731;DHT22;35622;52.008;5.426;2023-06-10T00:30:13;21.40;49.40
49731;DHT22;35622;52.008;5.426;2023-06-10T00:32:39;21.30;49.50
49731;DHT22;35622;52.008;5.426;2023-06-10T00:35:05;21.30;49.60
49731;DHT22;35622;52.008;5.426;2023-06-10T00:37:32;21.20;49.70
49731;DHT22;35622;52.008;5.426;2023-06-10T00:39:58;21.20;49.80
49731;DHT22;35622;52.008;5.426;2023-06-10T00:42:23;21.20;49.90
49731;DHT22;35622;52.008;5.426;2023-06-10T00:44:54;21.10;50.20
49731;DHT22;35622;52.008;5.426;2023-06-10T00:47:20;21.10;50.10
49731;DHT22;35622;52.008;5.426;2023-06-10T00:49:46;21.00;50.10
49731;DHT22;35622;52.008;5.426;2023-06-10T00:52:14;21.00;50.20
49731;DHT22;35622;52.008;5.426;2023-06-10T00:54:40;20.90;50.30
49731;DHT22;35622;52.008;5.426;2023-06-10T00:57:06;20.90;50.50
49731;DHT22;35622;52.008;5.426;2023-06-10T00:59:32;20.80;50.50
49731;DHT22;35622;52.008;5.426;2023-06-10T01:01:58;20.80;50.70
49731;DHT22;35622;52.008;5.426;2023-06-10T01:04:24;20.70;50.70
49731;DHT22;35622;52.008;5.426;2023-06-10T01:15:05;20.50;51.10
49731;DHT22;35622;52.008;5.426;2023-06-10T01:17:31;20.50;51.20
49731;DHT22;35622;52.008;5.426;2023-06-10T01:19:57;20.40;51.30
49731;DHT22;35622;52.008;5.426;2023-06-10T01:22:24;20.40;51.40
49731;DHT22;35622;52.008;5.426;2023-06-10T01:24:51;20.40;51.50
49731;DHT22;35622;52.008;5.426;2023-06-10T01:27:19;20.30;51.60
49731;DHT22;35622;52.008;5.426;2023-06-10T01:29:52;20.30;51.60
49731;DHT22;35622;52.008;5.426;2023-06-10T01:32:39;20.20;51.70
49731;DHT22;35622;52.008;5.426;2023-06-10T01:35:06;20.20;51.80
49731;DHT22;35622;52.008;5.426;2023-06-10T01:37:33;20.10;51.80
49731;DHT22;35622;52.008;5.426;2023-06-10T01:40:02;20.10;51.90
49731;DHT22;35622;52.008;5.426;2023-06-10T01:42:32;20.10;52.00
49731;DHT22;35622;52.008;5.426;2023-06-10T01:44:58;20.00;52.00
49731;DHT22;35622;52.008;5.426;2023-06-10T01:47:23;20.00;52.10
49731;DHT22;35622;52.008;5.426;2023-06-10T01:49:49;19.90;52.80
49731;DHT22;35622;52.008;5.426;2023-06-10T01:52:15;19.90;52.20
49731;DHT22;35622;52.008;5.426;2023-06-10T01:54:40;19.80;52.20
49731;DHT22;35622;52.008;5.426;2023-06-10T01:57:06;19.80;52.40
49731;DHT22;35622;52.008;5.426;2023-06-10T01:59:32;19.80;52.40
49731;DHT22;35622;52.008;5.426;2023-06-10T02:01:57;19.70;52.40
49731;DHT22;35622;52.008;5.426;2023-06-10T02:04:23;19.70;52.50
49731;DHT22;35622;52.008;5.426;2023-06-10T02:06:48;19.60;52.50
49731;DHT22;35622;52.008;5.426;2023-06-10T02:09:14;19.60;52.60
49731;DHT22;35622;52.008;5.426;2023-06-10T02:11:40;19.60;52.70
49731;DHT22;35622;52.008;5.426;2023-06-10T02:14:05;19.60;52.80
49731;DHT22;35622;52.008;5.426;2023-06-10T02:16:31;19.60;52.90
49731;DHT22;35622;52.008;5.426;2023-06-10T02:18:56;19.60;52.90
49731;DHT22;35622;52.008;5.426;2023-06-10T02:21:22;19.50;52.90
49731;DHT22;35622;52.008;5.426;2023-06-10T02:23:47;19.50;53.00
49731;DHT22;35622;52.008;5.426;2023-06-10T02:26:13;19.50;53.10
49731;DHT22;35622;52.008;5.426;2023-06-10T02:28:42;19.50;53.10
49731;DHT22;35622;52.008;5.426;2023-06-10T02:31:08;19.50;53.10
49731;DHT22;35622;52.008;5.426;2023-06-10T02:33:33;19.50;53.10
49731;DHT22;35622;52.008;5.426;2023-06-10T02:35:59;19.40;53.10
49731;DHT22;35622;52.008;5.426;2023-06-10T02:38:24;19.40;53.10
49731;DHT22;35622;52.008;5.426;2023-06-10T02:40:50;19.40;53.10
49731;DHT22;35622;52.008;5.426;2023-06-10T02:43:16;19.30;53.20
49731;DHT22;35622;52.008;5.426;2023-06-10T02:45:41;19.30;53.20
49731;DHT22;35622;52.008;5.426;2023-06-10T02:48:07;19.20;53.20
49731;DHT22;35622;52.008;5.426;2023-06-10T02:50:32;19.20;53.30
49731;DHT22;35622;52.008;5.426;2023-06-10T02:52:58;19.20;53.40
49731;DHT22;35622;52.008;5.426;2023-06-10T02:55:23;19.20;53.40
49731;DHT22;35622;52.008;5.426;2023-06-10T02:57:51;19.10;53.30
49731;DHT22;35622;52.008;5.426;2023-06-10T03:00:18;19.10;53.40
49731;DHT22;35622;52.008;5.426;2023-06-10T03:02:45;19.00;53.50
49731;DHT22;35622;52.008;5.426;2023-06-10T03:05:11;19.00;53.60
49731;DHT22;35622;52.008;5.426;2023-06-10T03:07:38;19.00;53.70
49731;DHT22;35622;52.008;5.426;2023-06-10T03:10:06;18.90;53.70
49731;DHT22;35622;52.008;5.426;2023-06-10T03:12:32;18.90;53.90
49731;DHT22;35622;52.008;5.426;2023-06-10T03:14:57;18.80;53.90
49731;DHT22;35622;52.008;5.426;2023-06-10T03:17:23;18.80;54.00
49731;DHT22;35622;52.008;5.426;2023-06-10T03:19:49;18.80;54.10
49731;DHT22;35622;52.008;5.426;2023-06-10T03:22:15;18.70;54.20
49731;DHT22;35622;52.008;5.426;2023-06-10T03:24:41;18.70;54.30
49731;DHT22;35622;52.008;5.426;2023-06-10T03:27:09;18.60;54.30
49731;DHT22;35622;52.008;5.426;2023-06-10T03:29:39;18.60;54.50
49731;DHT22;35622;52.008;5.426;2023-06-10T03:32:05;18.60;54.60
49731;DHT22;35622;52.008;5.426;2023-06-10T03:34:31;18.60;54.70
49731;DHT22;35622;52.008;5.426;2023-06-10T03:36:57;18.60;54.80
49731;DHT22;35622;52.008;5.426;2023-06-10T03:39:23;18.60;54.80
49731;DHT22;35622;52.008;5.426;2023-06-10T03:41:49;18.60;54.90
49731;DHT22;35622;52.008;5.426;2023-06-10T03:44:15;18.60;55.00
49731;DHT22;35622;52.008;5.426;2023-06-10T03:46:41;18.60;55.00
49731;DHT22;35622;52.008;5.426;2023-06-10T03:49:06;18.60;55.10
49731;DHT22;35622;52.008;5.426;2023-06-10T03:51:32;18.60;55.20
49731;DHT22;35622;52.008;5.426;2023-06-10T03:53:58;18.60;55.30
49731;DHT22;35622;52.008;5.426;2023-06-10T03:56:23;18.60;55.30
49731;DHT22;35622;52.008;5.426;2023-06-10T03:58:49;18.60;55.30
49731;DHT22;35622;52.008;5.426;2023-06-10T04:01:15;18.70;55.30
49731;DHT22;35622;52.008;5.426;2023-06-10T04:03:40;18.70;55.40
49731;DHT22;35622;52.008;5.426;2023-06-10T04:06:07;18.70;55.40
49731;DHT22;35622;52.008;5.426;2023-06-10T04:08:32;18.80;55.40
49731;DHT22;35622;52.008;5.426;2023-06-10T04:10:58;18.80;55.40
49731;DHT22;35622;52.008;5.426;2023-06-10T04:13:24;18.90;55.40
49731;DHT22;35622;52.008;5.426;2023-06-10T04:15:49;18.90;55.40
49731;DHT22;35622;52.008;5.426;2023-06-10T04:18:16;18.90;55.40
49731;DHT22;35622;52.008;5.426;2023-06-10T04:20:41;19.00;55.50
49731;DHT22;35622;52.008;5.426;2023-06-10T04:23:07;19.10;55.50
49731;DHT22;35622;52.008;5.426;2023-06-10T04:25:33;19.20;55.50
49731;DHT22;35622;52.008;5.426;2023-06-10T04:27:59;19.20;55.40
49731;DHT22;35622;52.008;5.426;2023-06-10T04:30:24;19.40;55.60
49731;DHT22;35622;52.008;5.426;2023-06-10T04:32:50;19.50;55.50
49731;DHT22;35622;52.008;5.426;2023-06-10T04:35:16;19.60;55.40
49731;DHT22;35622;52.008;5.426;2023-06-10T04:37:41;19.80;55.20
49731;DHT22;35622;52.008;5.426;2023-06-10T04:40:08;19.90;55.00
49731;DHT22;35622;52.008;5.426;2023-06-10T04:42:35;20.10;54.80
49731;DHT22;35622;52.008;5.426;2023-06-10T04:45:01;20.20;54.60
49731;DHT22;35622;52.008;5.426;2023-06-10T04:47:27;20.30;54.30
49731;DHT22;35622;52.008;5.426;2023-06-10T04:49:53;20.50;54.20
49731;DHT22;35622;52.008;5.426;2023-06-10T04:52:19;20.60;54.00
49731;DHT22;35622;52.008;5.426;2023-06-10T04:54:45;20.70;53.80
49731;DHT22;35622;52.008;5.426;2023-06-10T04:57:10;20.90;53.70
49731;DHT22;35622;52.008;5.426;2023-06-10T04:59:37;21.00;53.50
49731;DHT22;35622;52.008;5.426;2023-06-10T05:02:04;21.20;53.40
49731;DHT22;35622;52.008;5.426;2023-06-10T05:04:29;21.30;53.10
49731;DHT22;35622;52.008;5.426;2023-06-10T05:06:55;21.50;53.00
49731;DHT22;35622;52.008;5.426;2023-06-10T05:09:21;21.60;52.80
49731;DHT22;35622;52.008;5.426;2023-06-10T05:11:46;21.90;52.70
49731;DHT22;35622;52.008;5.426;2023-06-10T05:14:12;22.10;52.50
49731;DHT22;35622;52.008;5.426;2023-06-10T05:16:38;22.40;52.30
49731;DHT22;35622;52.008;5.426;2023-06-10T05:19:04;23.10;51.80
49731;DHT22;35622;52.008;5.426;2023-06-10T05:21:30;24.50;50.30
49731;DHT22;35622;52.008;5.426;2023-06-10T05:23:55;25.80;47.10
49731;DHT22;35622;52.008;5.426;2023-06-10T05:26:21;26.10;44.00
49731;DHT22;35622;52.008;5.426;2023-06-10T05:28:47;25.90;43.40
49731;DHT22;35622;52.008;5.426;2023-06-10T05:31:13;25.70;43.40
49731;DHT22;35622;52.008;5.426;2023-06-10T05:33:39;25.60;43.00
49731;DHT22;35622;52.008;5.426;2023-06-10T05:36:05;25.50;42.40
49731;DHT22;35622;52.008;5.426;2023-06-10T05:38:30;25.40;42.50
49731;DHT22;35622;52.008;5.426;2023-06-10T05:40:56;25.30;42.60
49731;DHT22;35622;52.008;5.426;2023-06-10T05:43:22;25.40;42.90
49731;DHT22;35622;52.008;5.426;2023-06-10T05:45:48;25.70;43.00
49731;DHT22;35622;52.008;5.426;2023-06-10T05:48:13;26.20;42.00
49731;DHT22;35622;52.008;5.426;2023-06-10T05:50:39;26.30;41.50
49731;DHT22;35622;52.008;5.426;2023-06-10T05:53:07;26.20;41.30
49731;DHT22;35622;52.008;5.426;2023-06-10T05:55:43;26.10;41.40
49731;DHT22;35622;52.008;5.426;2023-06-10T05:58:08;26.10;41.40
49731;DHT22;35622;52.008;5.426;2023-06-10T06:00:34;26.00;41.50
49731;DHT22;35622;52.008;5.426;2023-06-10T06:03:00;26.00;41.70
49731;DHT22;35622;52.008;5.426;2023-06-10T06:05:25;26.00;41.80
49731;DHT22;35622;52.008;5.426;2023-06-10T06:07:51;26.00;41.50
49731;DHT22;35622;52.008;5.426;2023-06-10T06:10:18;26.10;41.50
49731;DHT22;35622;52.008;5.426;2023-06-10T06:12:44;26.10;41.50
49731;DHT22;35622;52.008;5.426;2023-06-10T06:15:10;26.20;41.40
49731;DHT22;35622;52.008;5.426;2023-06-10T06:17:36;26.30;41.30
49731;DHT22;35622;52.008;5.426;2023-06-10T06:20:03;26.40;41.10
49731;DHT22;35622;52.008;5.426;2023-06-10T06:22:28;26.50;41.10
49731;DHT22;35622;52.008;5.426;2023-06-10T06:24:54;26.60;40.60
49731;DHT22;35622;52.008;5.426;2023-06-10T06:27:20;26.70;40.40
49731;DHT22;35622;52.008;5.426;2023-06-10T06:29:46;26.90;40.30
49731;DHT22;35622;52.008;5.426;2023-06-10T06:32:12;27.00;39.70
49731;DHT22;35622;52.008;5.426;2023-06-10T06:34:37;27.10;39.40
49731;DHT22;35622;52.008;5.426;2023-06-10T06:37:03;27.20;39.20
49731;DHT22;35622;52.008;5.426;2023-06-10T06:39:29;27.40;38.80
49731;DHT22;35622;52.008;5.426;2023-06-10T06:41:54;27.50;38.50
49731;DHT22;35622;52.008;5.426;2023-06-10T06:44:20;27.60;38.30
49731;DHT22;35622;52.008;5.426;2023-06-10T06:46:45;27.70;38.30
49731;DHT22;35622;52.008;5.426;2023-06-10T06:49:11;27.90;37.90
49731;DHT22;35622;52.008;5.426;2023-06-10T06:51:36;28.00;37.30
49731;DHT22;35622;52.008;5.426;2023-06-10T06:54:02;28.20;37.00
49731;DHT22;35622;52.008;5.426;2023-06-10T06:56:28;28.30;36.80
49731;DHT22;35622;52.008;5.426;2023-06-10T06:58:54;28.50;36.70
49731;DHT22;35622;52.008;5.426;2023-06-10T07:01:19;28.70;36.30
49731;DHT22;35622;52.008;5.426;2023-06-10T07:03:45;28.90;36.00
49731;DHT22;35622;52.008;5.426;2023-06-10T07:06:12;29.10;35.50
49731;DHT22;35622;52.008;5.426;2023-06-10T07:08:38;29.40;35.10
49731;DHT22;35622;52.008;5.426;2023-06-10T07:11:04;29.60;34.70
49731;DHT22;35622;52.008;5.426;2023-06-10T07:13:29;29.80;34.20
49731;DHT22;35622;52.008;5.426;2023-06-10T07:15:55;30.00;34.00
49731;DHT22;35622;52.008;5.426;2023-06-10T07:18:20;30.10;33.10
49731;DHT22;35622;52.008;5.426;2023-06-10T07:20:46;30.20;32.80
49731;DHT22;35622;52.008;5.426;2023-06-10T07:23:11;30.50;32.90
49731;DHT22;35622;52.008;5.426;2023-06-10T07:25:37;30.70;32.30
49731;DHT22;35622;52.008;5.426;2023-06-10T07:28:03;30.90;31.70
49731;DHT22;35622;52.008;5.426;2023-06-10T07:30:28;31.20;31.20
49731;DHT22;35622;52.008;5.426;2023-06-10T07:32:54;31.60;31.20
49731;DHT22;35622;52.008;5.426;2023-06-10T07:35:21;32.20;30.00
49731;DHT22;35622;52.008;5.426;2023-06-10T07:37:46;32.80;29.00
49731;DHT22;35622;52.008;5.426;2023-06-10T07:40:12;33.70;27.70
49731;DHT22;35622;52.008;5.426;2023-06-10T07:42:38;35.10;26.00
49731;DHT22;35622;52.008;5.426;2023-06-10T07:45:04;36.90;24.80
49731;DHT22;35622;52.008;5.426;2023-06-10T07:47:30;39.10;23.50
49731;DHT22;35622;52.008;5.426;2023-06-10T07:49:56;41.20;21.70
49731;DHT22;35622;52.008;5.426;2023-06-10T07:52:22;43.10;20.00
49731;DHT22;35622;52.008;5.426;2023-06-10T07:54:47;44.70;19.00
49731;DHT22;35622;52.008;5.426;2023-06-10T07:57:13;46.30;18.00
49731;DHT22;35622;52.008;5.426;2023-06-10T07:59:38;47.60;16.50
49731;DHT22;35622;52.008;5.426;2023-06-10T08:02:04;48.20;15.10
49731;DHT22;35622;52.008;5.426;2023-06-10T08:04:31;49.20;14.40
49731;DHT22;35622;52.008;5.426;2023-06-10T08:06:57;49.90;14.00
49731;DHT22;35622;52.008;5.426;2023-06-10T08:09:23;50.80;13.40
49731;DHT22;35622;52.008;5.426;2023-06-10T08:11:49;51.50;13.00
49731;DHT22;35622;52.008;5.426;2023-06-10T08:14:15;52.40;12.50
49731;DHT22;35622;52.008;5.426;2023-06-10T08:16:42;53.40;12.10
49731;DHT22;35622;52.008;5.426;2023-06-10T08:19:08;53.90;11.30
49731;DHT22;35622;52.008;5.426;2023-06-10T08:21:35;53.90;10.70
49731;DHT22;35622;52.008;5.426;2023-06-10T08:24:02;54.00;10.60
49731;DHT22;35622;52.008;5.426;2023-06-10T08:26:28;54.20;10.30
49731;DHT22;35622;52.008;5.426;2023-06-10T08:28:54;54.60;10.50
49731;DHT22;35622;52.008;5.426;2023-06-10T08:31:20;55.20;10.40
49731;DHT22;35622;52.008;5.426;2023-06-10T08:33:46;55.30;9.90
49731;DHT22;35622;52.008;5.426;2023-06-10T08:36:12;55.70;10.20
49731;DHT22;35622;52.008;5.426;2023-06-10T08:38:38;56.30;9.70
49731;DHT22;35622;52.008;5.426;2023-06-10T08:41:05;56.60;9.60
49731;DHT22;35622;52.008;5.426;2023-06-10T08:46:24;57.00;8.90
49731;DHT22;35622;52.008;5.426;2023-06-10T08:48:54;57.30;8.80
49731;DHT22;35622;52.008;5.426;2023-06-10T08:51:21;57.30;8.90
49731;DHT22;35622;52.008;5.426;2023-06-10T08:54:01;57.50;8.90
49731;DHT22;35622;52.008;5.426;2023-06-10T08:56:29;57.60;8.50
49731;DHT22;35622;52.008;5.426;2023-06-10T08:58:57;57.60;8.30
49731;DHT22;35622;52.008;5.426;2023-06-10T09:01:24;57.70;8.50
49731;DHT22;35622;52.008;5.426;2023-06-10T09:03:51;57.90;7.90
49731;DHT22;35622;52.008;5.426;2023-06-10T09:06:18;57.50;8.00
49731;DHT22;35622;52.008;5.426;2023-06-10T09:08:43;57.30;7.90
49731;DHT22;35622;52.008;5.426;2023-06-10T09:11:09;56.90;8.00
49731;DHT22;35622;52.008;5.426;2023-06-10T09:13:35;56.90;8.40
49731;DHT22;35622;52.008;5.426;2023-06-10T09:16:00;57.20;8.40
49731;DHT22;35622;52.008;5.426;2023-06-10T09:18:30;57.20;8.00
49731;DHT22;35622;52.008;5.426;2023-06-10T09:20:56;57.10;8.20
49731;DHT22;35622;52.008;5.426;2023-06-10T09:23:22;57.20;8.10
49731;DHT22;35622;52.008;5.426;2023-06-10T09:25:56;57.40;8.10
49731;DHT22;35622;52.008;5.426;2023-06-10T09:28:22;57.60;8.00
49731;DHT22;35622;52.008;5.426;2023-06-10T09:30:47;58.00;7.90
49731;DHT22;35622;52.008;5.426;2023-06-10T09:33:14;58.40;7.70
49731;DHT22;35622;52.008;5.426;2023-06-10T09:35:48;58.90;7.50
49731;DHT22;35622;52.008;5.426;2023-06-10T09:38:19;59.20;7.10
49731;DHT22;35622;52.008;5.426;2023-06-10T09:40:52;59.10;7.00
49731;DHT22;35622;52.008;5.426;2023-06-10T09:43:18;59.20;7.10
49731;DHT22;35622;52.008;5.426;2023-06-10T09:45:44;59.30;7.00
49731;DHT22;35622;52.008;5.426;2023-06-10T09:48:09;59.30;7.10
49731;DHT22;35622;52.008;5.426;2023-06-10T09:50:42;59.50;6.70
49731;DHT22;35622;52.008;5.426;2023-06-10T09:53:09;59.50;6.70
49731;DHT22;35622;52.008;5.426;2023-06-10T09:55:40;59.30;6.60
49731;DHT22;35622;52.008;5.426;2023-06-10T09:58:06;59.30;6.70
49731;DHT22;35622;52.008;5.426;2023-06-10T10:00:33;59.30;6.70
49731;DHT22;35622;52.008;5.426;2023-06-10T10:02:59;59.30;6.60
49731;DHT22;35622;52.008;5.426;2023-06-10T10:05:25;59.20;6.70
49731;DHT22;35622;52.008;5.426;2023-06-10T10:07:51;59.40;6.70
49731;DHT22;35622;52.008;5.426;2023-06-10T10:10:21;59.40;6.50
49731;DHT22;35622;52.008;5.426;2023-06-10T10:12:48;59.30;6.60
49731;DHT22;35622;52.008;5.426;2023-06-10T10:15:16;59.30;6.60
49731;DHT22;35622;52.008;5.426;2023-06-10T10:17:56;59.40;6.50
49731;DHT22;35622;52.008;5.426;2023-06-10T10:20:27;59.20;6.40
49731;DHT22;35622;52.008;5.426;2023-06-10T10:22:56;58.90;6.40
49731;DHT22;35622;52.008;5.426;2023-06-10T10:25:37;58.40;6.60
49731;DHT22;35622;52.008;5.426;2023-06-10T10:30:30;58.30;6.60
49731;DHT22;35622;52.008;5.426;2023-06-10T10:33:04;58.60;6.80
49731;DHT22;35622;52.008;5.426;2023-06-10T10:35:30;58.90;6.60
49731;DHT22;35622;52.008;5.426;2023-06-10T10:37:58;59.20;6.60
49731;DHT22;35622;52.008;5.426;2023-06-10T10:40:25;59.10;6.20
49731;DHT22;35622;52.008;5.426;2023-06-10T10:42:56;59.00;6.20
49731;DHT22;35622;52.008;5.426;2023-06-10T10:45:22;59.00;6.20
49731;DHT22;35622;52.008;5.426;2023-06-10T10:47:52;58.90;6.20
49731;DHT22;35622;52.008;5.426;2023-06-10T10:50:19;58.70;6.30
49731;DHT22;35622;52.008;5.426;2023-06-10T10:52:55;58.60;6.10
49731;DHT22;35622;52.008;5.426;2023-06-10T10:55:22;58.20;6.20
49731;DHT22;35622;52.008;5.426;2023-06-10T10:57:59;58.00;6.40
49731;DHT22;35622;52.008;5.426;2023-06-10T11:00:33;57.90;6.50
49731;DHT22;35622;52.008;5.426;2023-06-10T11:03:08;57.90;6.50
49731;DHT22;35622;52.008;5.426;2023-06-10T11:05:42;57.80;6.40
49731;DHT22;35622;52.008;5.426;2023-06-10T11:10:58;57.50;6.40
49731;DHT22;35622;52.008;5.426;2023-06-10T11:13:26;57.40;6.30
49731;DHT22;35622;52.008;5.426;2023-06-10T11:15:52;57.40;6.50
49731;DHT22;35622;52.008;5.426;2023-06-10T11:18:26;57.60;6.40
49731;DHT22;35622;52.008;5.426;2023-06-10T11:20:56;57.30;6.40
49731;DHT22;35622;52.008;5.426;2023-06-10T11:31:43;56.90;6.70
49731;DHT22;35622;52.008;5.426;2023-06-10T11:34:09;57.20;6.60
49731;DHT22;35622;52.008;5.426;2023-06-10T11:36:40;57.20;6.50
49731;DHT22;35622;52.008;5.426;2023-06-10T11:39:08;56.90;6.40
49731;DHT22;35622;52.008;5.426;2023-06-10T11:41:35;57.10;6.20
49731;DHT22;35622;52.008;5.426;2023-06-10T11:44:11;57.20;6.50
49731;DHT22;35622;52.008;5.426;2023-06-10T11:46:38;56.40;6.40
49731;DHT22;35622;52.008;5.426;2023-06-10T11:49:05;55.70;6.30
49731;DHT22;35622;52.008;5.426;2023-06-10T11:51:36;55.30;7.00
49731;DHT22;35622;52.008;5.426;2023-06-10T11:54:03;55.60;6.80
49731;DHT22;35622;52.008;5.426;2023-06-10T11:56:30;55.70;6.90
49731;DHT22;35622;52.008;5.426;2023-06-10T11:59:06;55.70;6.60
49731;DHT22;35622;52.008;5.426;2023-06-10T12:01:37;54.90;6.60
49731;DHT22;35622;52.008;5.426;2023-06-10T12:04:10;54.80;7.00
49731;DHT22;35622;52.008;5.426;2023-06-10T12:06:50;54.90;7.20
49731;DHT22;35622;52.008;5.426;2023-06-10T12:09:25;55.00;7.20
49731;DHT22;35622;52.008;5.426;2023-06-10T12:11:54;55.00;7.00
49731;DHT22;35622;52.008;5.426;2023-06-10T12:14:57;54.80;6.80
49731;DHT22;35622;52.008;5.426;2023-06-10T12:20:04;53.60;6.70
49731;DHT22;35622;52.008;5.426;2023-06-10T12:22:41;52.40;7.60
49731;DHT22;35622;52.008;5.426;2023-06-10T12:25:08;51.00;8.20
49731;DHT22;35622;52.008;5.426;2023-06-10T12:27:35;49.60;8.60
49731;DHT22;35622;52.008;5.426;2023-06-10T12:30:03;48.00;9.30
49731;DHT22;35622;52.008;5.426;2023-06-10T12:32:43;46.30;10.10
49731;DHT22;35622;52.008;5.426;2023-06-10T12:35:11;44.80;10.70
49731;DHT22;35622;52.008;5.426;2023-06-10T12:37:40;43.50;11.60
49731;DHT22;35622;52.008;5.426;2023-06-10T12:40:06;42.60;12.50
49731;DHT22;35622;52.008;5.426;2023-06-10T12:42:38;41.80;12.90
49731;DHT22;35622;52.008;5.426;2023-06-10T12:45:05;41.20;13.30
49731;DHT22;35622;52.008;5.426;2023-06-10T12:47:34;40.60;13.60
49731;DHT22;35622;52.008;5.426;2023-06-10T12:50:10;40.10;14.10
49731;DHT22;35622;52.008;5.426;2023-06-10T12:52:37;39.70;14.40
49731;DHT22;35622;52.008;5.426;2023-06-10T12:55:04;39.40;14.60
49731;DHT22;35622;52.008;5.426;2023-06-10T12:57:30;39.20;15.00
49731;DHT22;35622;52.008;5.426;2023-06-10T12:59:56;39.00;14.90
49731;DHT22;35622;52.008;5.426;2023-06-10T13:02:28;38.80;15.10
49731;DHT22;35622;52.008;5.426;2023-06-10T13:04:54;38.80;15.40
49731;DHT22;35622;52.008;5.426;2023-06-10T13:07:20;38.70;15.50
49731;DHT22;35622;52.008;5.426;2023-06-10T13:09:46;38.60;15.50
49731;DHT22;35622;52.008;5.426;2023-06-10T13:12:14;38.50;15.60
49731;DHT22;35622;52.008;5.426;2023-06-10T13:14:40;38.60;15.70
49731;DHT22;35622;52.008;5.426;2023-06-10T13:17:05;38.60;15.80
49731;DHT22;35622;52.008;5.426;2023-06-10T13:19:32;38.50;16.00
49731;DHT22;35622;52.008;5.426;2023-06-10T13:21:58;38.50;15.90
49731;DHT22;35622;52.008;5.426;2023-06-10T13:24:24;38.50;15.80
49731;DHT22;35622;52.008;5.426;2023-06-10T13:26:49;38.30;15.70
49731;DHT22;35622;52.008;5.426;2023-06-10T13:29:15;38.10;15.80
49731;DHT22;35622;52.008;5.426;2023-06-10T13:31:41;37.90;15.90
49731;DHT22;35622;52.008;5.426;2023-06-10T13:34:07;37.80;16.30
49731;DHT22;35622;52.008;5.426;2023-06-10T13:36:33;37.80;16.50
49731;DHT22;35622;52.008;5.426;2023-06-10T13:38:58;37.70;16.70
49731;DHT22;35622;52.008;5.426;2023-06-10T13:41:24;37.70;16.90
49731;DHT22;35622;52.008;5.426;2023-06-10T13:43:50;37.70;16.80
49731;DHT22;35622;52.008;5.426;2023-06-10T13:46:15;37.60;16.50
49731;DHT22;35622;52.008;5.426;2023-06-10T13:48:41;37.50;16.60
49731;DHT22;35622;52.008;5.426;2023-06-10T13:51:07;37.40;16.90
49731;DHT22;35622;52.008;5.426;2023-06-10T13:53:34;37.50;17.10
49731;DHT22;35622;52.008;5.426;2023-06-10T13:56:00;37.30;17.00
49731;DHT22;35622;52.008;5.426;2023-06-10T13:58:25;37.20;16.90
49731;DHT22;35622;52.008;5.426;2023-06-10T14:00:51;37.20;17.30
49731;DHT22;35622;52.008;5.426;2023-06-10T14:03:17;37.20;17.40
49731;DHT22;35622;52.008;5.426;2023-06-10T14:05:42;37.20;17.50
49731;DHT22;35622;52.008;5.426;2023-06-10T14:08:08;37.10;17.60
49731;DHT22;35622;52.008;5.426;2023-06-10T14:10:33;37.10;17.50
49731;DHT22;35622;52.008;5.426;2023-06-10T14:12:59;37.10;17.50
49731;DHT22;35622;52.008;5.426;2023-06-10T14:15:25;37.20;17.60
49731;DHT22;35622;52.008;5.426;2023-06-10T14:17:51;37.10;17.30
49731;DHT22;35622;52.008;5.426;2023-06-10T14:20:16;37.10;17.60
49731;DHT22;35622;52.008;5.426;2023-06-10T14:22:42;37.10;17.70
49731;DHT22;35622;52.008;5.426;2023-06-10T14:25:08;37.10;17.50
49731;DHT22;35622;52.008;5.426;2023-06-10T14:27:33;37.00;17.40
49731;DHT22;35622;52.008;5.426;2023-06-10T14:29:59;36.90;17.40
49731;DHT22;35622;52.008;5.426;2023-06-10T14:32:24;36.90;17.40
49731;DHT22;35622;52.008;5.426;2023-06-10T14:34:50;36.90;17.60
49731;DHT22;35622;52.008;5.426;2023-06-10T14:37:16;36.90;18.00
49731;DHT22;35622;52.008;5.426;2023-06-10T14:39:41;37.00;17.80
49731;DHT22;35622;52.008;5.426;2023-06-10T14:42:07;37.00;17.40
49731;DHT22;35622;52.008;5.426;2023-06-10T14:44:32;36.90;17.30
49731;DHT22;35622;52.008;5.426;2023-06-10T14:46:58;36.90;17.60
49731;DHT22;35622;52.008;5.426;2023-06-10T14:49:23;36.80;17.60
49731;DHT22;35622;52.008;5.426;2023-06-10T14:51:49;36.70;17.60
49731;DHT22;35622;52.008;5.426;2023-06-10T14:54:15;36.60;17.70
49731;DHT22;35622;52.008;5.426;2023-06-10T14:56:41;36.60;17.80
49731;DHT22;35622;52.008;5.426;2023-06-10T14:59:06;36.50;17.80
49731;DHT22;35622;52.008;5.426;2023-06-10T15:01:32;36.50;17.70
49731;DHT22;35622;52.008;5.426;2023-06-10T15:03:57;36.30;17.40
49731;DHT22;35622;52.008;5.426;2023-06-10T15:06:23;36.20;17.50
49731;DHT22;35622;52.008;5.426;2023-06-10T15:08:49;36.20;17.70
49731;DHT22;35622;52.008;5.426;2023-06-10T15:11:15;36.10;17.70
49731;DHT22;35622;52.008;5.426;2023-06-10T15:13:40;36.10;17.90
49731;DHT22;35622;52.008;5.426;2023-06-10T15:16:06;36.10;18.00
49731;DHT22;35622;52.008;5.426;2023-06-10T15:18:32;36.00;18.10
49731;DHT22;35622;52.008;5.426;2023-06-10T15:20:58;36.00;18.30
49731;DHT22;35622;52.008;5.426;2023-06-10T15:23:23;35.90;18.40
49731;DHT22;35622;52.008;5.426;2023-06-10T15:25:50;35.90;18.30
49731;DHT22;35622;52.008;5.426;2023-06-10T15:28:15;35.80;18.20
49731;DHT22;35622;52.008;5.426;2023-06-10T15:30:41;35.70;18.40
49731;DHT22;35622;52.008;5.426;2023-06-10T15:33:06;35.70;18.70
49731;DHT22;35622;52.008;5.426;2023-06-10T15:35:32;35.60;18.80
49731;DHT22;35622;52.008;5.426;2023-06-10T15:37:58;35.60;19.40
49731;DHT22;35622;52.008;5.426;2023-06-10T15:40:23;35.60;19.40
49731;DHT22;35622;52.008;5.426;2023-06-10T15:42:49;35.40;19.20
49731;DHT22;35622;52.008;5.426;2023-06-10T15:45:15;35.40;18.80
49731;DHT22;35622;52.008;5.426;2023-06-10T15:47:40;35.30;18.60
49731;DHT22;35622;52.008;5.426;2023-06-10T15:50:09;35.30;18.70
49731;DHT22;35622;52.008;5.426;2023-06-10T15:52:35;35.10;18.70
49731;DHT22;35622;52.008;5.426;2023-06-10T15:55:00;35.10;18.80
49731;DHT22;35622;52.008;5.426;2023-06-10T15:57:27;35.00;19.00
49731;DHT22;35622;52.008;5.426;2023-06-10T15:59:53;35.00;19.00